EWG389 GMFF-EDDK
Flight info
| Callsign | EWG389 |
|---|---|
| Flight time | N/A |
| Altitude | 36000 |
| Route | DCT FES G850 ALM UG850 BERUM/N0439F380 L58 VIBAS N865 VTB N867 DGO N858 ABRIX DCT CNA DCT ADABI DCT BOKNO DCT ODILO DCT AHVEC DCT ARDEN DCT KOMOB DCT IBESA T860 ERUKI |
| Aircraft | A320/M-SDE3FGHIRWY/LB1 |
Departure
| Time | N/A |
|---|---|
| Airport | Fes Saïss International Airport (GMFF) |
Arrival
| Time | 2026-04-20 12:57 |
|---|---|
| Airport | Cologne Bonn Airport (EDDK) |
| Time | Latitude | Longitude | Altitude | Speed | Heading |
|---|---|---|---|---|---|
| 2026-04-20 12:55 | 50.80764 | 7.23472 | 1625 ft | 133 kts | 320° |
| 2026-04-20 12:55 | 50.81447 | 7.22472 | 1432 ft | 134 kts | 319° |
| 2026-04-20 12:55 | 50.82133 | 7.21479 | 1251 ft | 135 kts | 319° |
| 2026-04-20 12:55 | 50.82784 | 7.20534 | 1087 ft | 135 kts | 319° |
| 2026-04-20 12:56 | 50.83454 | 7.19564 | 913 ft | 128 kts | 318° |
| 2026-04-20 12:56 | 50.84104 | 7.18619 | 739 ft | 128 kts | 318° |
| 2026-04-20 12:56 | 50.84692 | 7.17758 | 605 ft | 131 kts | 318° |
| 2026-04-20 12:56 | 50.85408 | 7.16732 | 401 ft | 128 kts | 318° |
| 2026-04-20 12:57 | 50.86044 | 7.15803 | 295 ft | 119 kts | 319° |
| 2026-04-20 12:57 | 50.86546 | 7.15084 | 277 ft | 68 kts | 318° |
| 2026-04-20 12:57 | 50.86825 | 7.14652 | 265 ft | 52 kts | 298° |
| 2026-04-20 12:57 | 50.86890 | 7.14309 | 257 ft | 29 kts | 280° |
| 2026-04-20 12:58 | 50.86951 | 7.14031 | 251 ft | 23 kts | 321° |
| 2026-04-20 12:58 | 50.87089 | 7.13836 | 246 ft | 30 kts | 317° |
| 2026-04-20 12:58 | 50.87254 | 7.13597 | 240 ft | 34 kts | 317° |
| 2026-04-20 12:58 | 50.87357 | 7.13339 | 237 ft | 25 kts | 281° |
| 2026-04-20 12:59 | 50.87490 | 7.13101 | 234 ft | 33 kts | 317° |
| 2026-04-20 12:59 | 50.87653 | 7.12864 | 231 ft | 32 kts | 317° |
| 2026-04-20 12:59 | 50.87769 | 7.12631 | 229 ft | 19 kts | 271° |
| 2026-04-20 12:59 | 50.87794 | 7.12458 | 227 ft | 8 kts | 288° |
| 2026-04-20 13:00 | 50.87803 | 7.12412 | 226 ft | 0 kts | 287° |